Broad Arrow, Australia
Current Conditions -  °F | °C
As of 6:00 PM on Monday 20 Oct 2014 (Local Time) from YPKG Reporting Station
Clear Clear  
Wind Chill: 72°   Ceiling: Unl
Heat Index: 72°   Visibility: NA
Dew Point: 43°   Wind: 13mph
Humidity: 35%   Direction: 240°WSW
Pressure: 30"   Gusts: NA
Location:  30.44°S, 121.31°E
Report Text: YPKG 201000Z AUTO 24011KT //// // NCD 22/06 Q1016
Loading
Personal Weather Stations






























Interactive Weather Map
Tropical Storm Tracking
New forecast layout! Learn more

10-Day Weather Forecast

Advertisements
Track Severe Weather on mobile